EDVK 192020Z 20008KT CAVOK 17/14 Q1020 EDVK 191950Z 21006KT CAVOK 17/15 Q1020 EDVK 191920Z 24008KT 210V280 9999 FEW001 17/15 Q1020 EDVK 191850Z VRB02KT 9999 FEW001 17/16 Q1019 EDVK 191820Z VRB02KT 9999 FEW001 SCT078CB 17/16 Q1019 RETS EDVK 191750Z VRB02KT 9999 -TSRA BKN075CB 17/16 Q1020 EDVK 191720Z 30004KT 260V340 9999 TSRA BKN065CB 17/16 Q1020 EDVK 191650Z 30012KT 9999 -TSRA FEW042 BKN060CB 19/15 Q1020 EDVK 191620Z 29022KT 9999 VCTS BKN060CB 21/13 Q1020 EDVK 191550Z 20011KT 9999 SCT060CB 26/13 Q1018 EDVK 191520Z 20011KT 170V230 9999 SCT060TCU 27/13 Q1017 EDVK 191450Z 17009KT CAVOK 27/13 Q1017 EDVK 191420Z 18010KT CAVOK 28/10 Q1017 EDVK 191350Z 18012KT CAVOK 27/11 Q1018 EDVK 191320Z 18012KT CAVOK 26/10 Q1018 EDVK 191250Z 19010KT CAVOK 27/09 Q1018 EDVK 191220Z 18010KT 130V210 CAVOK 27/09 Q1018 EDVK 191150Z 18006KT 130V240 CAVOK 27/11 Q1019 EDVK 191120Z 16007KT 130V200 CAVOK 25/10 Q1019 EDVK 191050Z 17009KT CAVOK 25/10 Q1019 EDVK 191020Z 16009KT CAVOK 24/11 Q1020 EDVK 190950Z 15012KT CAVOK 24/10 Q1020 EDVK 190920Z 14011KT CAVOK 24/10 Q1020 EDVK 190850Z 15011KT CAVOK 23/09 Q1020 EDVK 190820Z 16010KT CAVOK 22/11 Q1020 EDVK 190750Z 15008KT 120V180 CAVOK 22/10 Q1021 EDVK 190720Z 14008KT CAVOK 21/10 Q1021 EDVK 190650Z 16008KT CAVOK 20/11 Q1021 EDVK 190620Z 15006KT CAVOK 19/11 Q1021 EDVK 190550Z 15006KT CAVOK 19/11 Q1021 EDVK 190520Z 16006KT CAVOK 18/11 Q1021 EDVK 190420Z 15006KT CAVOK 17/11 Q1020 EDVK 190350Z 15006KT CAVOK 17/12 Q1021 EDVK 181920Z 16005KT CAVOK 21/14 Q1021 EDVK 181850Z 16005KT CAVOK 22/14 Q1021 EDVK 181820Z 18003KT CAVOK 24/13 Q1022 EDVK 181750Z 17005KT CAVOK 24/13 Q1021 EDVK 181720Z 16008KT CAVOK 26/13 Q1021 EDVK 181650Z 16008KT CAVOK 26/13 Q1022 EDVK 181620Z 18006KT 150V250 CAVOK 26/12 Q1022 EDVK 181550Z 17008KT CAVOK 27/13 Q1022 EDVK 181520Z 16008KT 090V210 CAVOK 27/13 Q1022 EDVK 181450Z 18006KT 140V220 CAVOK 27/13 Q1022 EDVK 181420Z VRB06KT CAVOK 26/12 Q1022 EDVK 181350Z 19008KT CAVOK 26/12 Q1022 EDVK 181320Z 20008KT 160V230 CAVOK 26/12 Q1022

METAR Messwerte "KASSEL/CALDEN" EDVK

Zurück zur Übersicht

Ortsname
Ländercode / m ü. NN
Zeit Temperatur Taupunkt Rel.
Luftfeuchte
Luftdruck:
Altimeter
NN
Station
Wind in Beaufort
(Knoten)
Sichtweite
(Meter)
Wolken
(Meter über Grund)
Wettererscheinung
KASSEL/CALDEN
DE 277
Do 19.05. 22:20171482 %1020
1020
987
SSW 3 (8)>= 10000Nicht signifikant 
KASSEL/CALDEN
DE 277
Do 19.05. 21:50171588 %1020
1020
987
SSW 2 (6)>= 10000Nicht signifikant 
KASSEL/CALDEN
DE 277
Do 19.05. 21:20171588 %1020
1020
987
WSW 3 (8)
SSW - W
>= 10000Leicht bewölkt (30) 
KASSEL/CALDEN
DE 277
Do 19.05. 20:50171694 %1019
1019
986
Uml 1 (2)>= 10000Leicht bewölkt (30) 
KASSEL/CALDEN
DE 277
Do 19.05. 20:20171694 %1019
1019
986
Uml 1 (2)>= 10000Wolkig Cb (2400)
Leicht bewölkt (30)
 
KASSEL/CALDEN
DE 277
Do 19.05. 19:50171694 %1020
1020
987
Uml 1 (2)>= 10000Stark bewölkt Cb (2300)Gewitter mit Regen (schwach)
KASSEL/CALDEN
DE 277
Do 19.05. 19:20171694 %1020
1020
987
WNW 2 (4)
W - NNW
>= 10000Stark bewölkt Cb (2000)Gewitter mit Regen
KASSEL/CALDEN
DE 277
Do 19.05. 18:50191578 %1020
1020
987
WNW 4 (12)>= 10000Stark bewölkt Cb (1800)
Leicht bewölkt (1300)
Gewitter mit Regen (schwach)
KASSEL/CALDEN
DE 277
Do 19.05. 18:20211360 %1020
1019
987
WNW 6 (22)>= 10000Stark bewölkt Cb (1800) 
KASSEL/CALDEN
DE 277
Do 19.05. 17:50261345 %1018
1017
985
SSW 4 (11)>= 10000Wolkig Cb (1800) 
KASSEL/CALDEN
DE 277
Do 19.05. 17:20271342 %1017
1016
984
SSW 4 (11)
S - SW
>= 10000Wolkig (1800) 
KASSEL/CALDEN
DE 277
Do 19.05. 16:50271342 %1017
1016
984
S 3 (9)>= 10000Nicht signifikant 
KASSEL/CALDEN
DE 277
Do 19.05. 16:20281032 %1017
1016
984
S 3 (10)>= 10000Nicht signifikant 
KASSEL/CALDEN
DE 277
Do 19.05. 15:50271137 %1018
1017
985
S 4 (12)>= 10000Nicht signifikant 
KASSEL/CALDEN
DE 277
Do 19.05. 15:20261037 %1018
1017
985
S 4 (12)>= 10000Nicht signifikant 
KASSEL/CALDEN
DE 277
Do 19.05. 14:5027932 %1018
1017
985
S 3 (10)>= 10000Nicht signifikant 
KASSEL/CALDEN
DE 277
Do 19.05. 14:2027932 %1018
1017
985
S 3 (10)
SO - SSW
>= 10000Nicht signifikant 
KASSEL/CALDEN
DE 277
Do 19.05. 13:50271137 %1019
1018
986
S 2 (6)
SO - WSW
>= 10000Nicht signifikant 
KASSEL/CALDEN
DE 277
Do 19.05. 13:20251039 %1019
1018
986
SSO 3 (7)
SO - SSW
>= 10000Nicht signifikant 
KASSEL/CALDEN
DE 277
Do 19.05. 12:50251039 %1019
1018
986
S 3 (9)>= 10000Nicht signifikant 
KASSEL/CALDEN
DE 277
Do 19.05. 12:20241144 %1020
1019
987
SSO 3 (9)>= 10000Nicht signifikant 
KASSEL/CALDEN
DE 277
Do 19.05. 11:50241041 %1020
1019
987
SSO 4 (12)>= 10000Nicht signifikant 
KASSEL/CALDEN
DE 277
Do 19.05. 11:20241041 %1020
1019
987
SO 4 (11)>= 10000Nicht signifikant 
KASSEL/CALDEN
DE 277
Do 19.05. 10:5023941 %1020
1019
987
SSO 4 (11)>= 10000Nicht signifikant 
KASSEL/CALDEN
DE 277
Do 19.05. 10:20221150 %1020
1019
987
SSO 3 (10)>= 10000Nicht signifikant 
KASSEL/CALDEN
DE 277
Do 19.05. 09:50221046 %1021
1020
988
SSO 3 (8)
OSO - S
>= 10000Nicht signifikant 
KASSEL/CALDEN
DE 277
Do 19.05. 09:20211049 %1021
1020
988
SO 3 (8)>= 10000Nicht signifikant 
KASSEL/CALDEN
DE 277
Do 19.05. 08:50201156 %1021
1020
988
SSO 3 (8)>= 10000Nicht signifikant 
KASSEL/CALDEN
DE 277
Do 19.05. 08:20191160 %1021
1021
988
SSO 2 (6)>= 10000Nicht signifikant 
KASSEL/CALDEN
DE 277
Do 19.05. 07:50191160 %1021
1021
988
SSO 2 (6)>= 10000Nicht signifikant 
KASSEL/CALDEN
DE 277
Do 19.05. 07:20181164 %1021
1021
988
SSO 2 (6)>= 10000Nicht signifikant 
KASSEL/CALDEN
DE 277
Do 19.05. 06:20171168 %1020
1020
987
SSO 2 (6)>= 10000Nicht signifikant 
KASSEL/CALDEN
DE 277
Do 19.05. 05:50171272 %1021
1021
988
SSO 2 (6)>= 10000Nicht signifikant 
KASSEL/CALDEN
DE 277
Mi 18.05. 21:20211464 %1021
1020
988
SSO 2 (5)>= 10000Nicht signifikant 
KASSEL/CALDEN
DE 277
Mi 18.05. 20:50221460 %1021
1020
988
SSO 2 (5)>= 10000Nicht signifikant 
KASSEL/CALDEN
DE 277
Mi 18.05. 20:20241350 %1022
1021
989
S 2 (3)>= 10000Nicht signifikant 
KASSEL/CALDEN
DE 277
Mi 18.05. 19:50241350 %1021
1020
988
S 2 (5)>= 10000Nicht signifikant 
KASSEL/CALDEN
DE 277
Mi 18.05. 19:20261345 %1021
1020
988
SSO 3 (8)>= 10000Nicht signifikant 
KASSEL/CALDEN
DE 277
Mi 18.05. 18:50261345 %1022
1021
989
SSO 3 (8)>= 10000Nicht signifikant 
KASSEL/CALDEN
DE 277
Mi 18.05. 18:20261242 %1022
1021
989
S 2 (6)
SSO - WSW
>= 10000Nicht signifikant 
KASSEL/CALDEN
DE 277
Mi 18.05. 17:50271342 %1022
1021
989
S 3 (8)>= 10000Nicht signifikant 
KASSEL/CALDEN
DE 277
Mi 18.05. 17:20271342 %1022
1021
989
SSO 3 (8)
O - SSW
>= 10000Nicht signifikant 
KASSEL/CALDEN
DE 277
Mi 18.05. 16:50271342 %1022
1021
989
S 2 (6)
SO - SW
>= 10000Nicht signifikant 
KASSEL/CALDEN
DE 277
Mi 18.05. 16:20261242 %1022
1021
989
Uml 2 (6)>= 10000Nicht signifikant 
KASSEL/CALDEN
DE 277
Mi 18.05. 15:50261242 %1022
1021
989
S 3 (8)>= 10000Nicht signifikant 
KASSEL/CALDEN
DE 277
Mi 18.05. 15:20261242 %1022
1021
989
SSW 3 (8)
SSO - SW
>= 10000Nicht signifikant 

Altimeter: Einstellung am Altimeter (Höhenmesser), die Höhe 0 muss auf diesen Luftdruckwert zeigen, damit das Gerät die Stationshöhe richtig anzeigt.

NN: Luftdruck reduziert auf "Normal Null", auf Meereshöhe, dieser von der Temperatur abhängige Wert wird bisweilen unkorrekt einfach als "Luftdruck" bezeichnet. Eigentlich nur eine fiktive Größe, die es erlaubt, Stationen auf unterschiedlichen Höhen miteinander zu vergleichen.

Station: Realer Luftdruck an der Station.